San Marcos, California
Current Conditions -  °F | °C
As of 4:53 AM on Wednesday 22 Oct 2014 (Local Time) from KCRQ Reporting Station
Haze Haze  
Wind Chill: 16°   Ceiling: Unl
Heat Index: 16°   Visibility: 4mi
Dew Point: 14°   Wind: 3mph
Humidity: 93%   Direction: 70°ENE
Pressure: 29.88"   Gusts: NA
Location:  33.14°N, 117.15°W
Report Text: KCRQ 221153Z 07003KT 4SM BR CLR 16/14 A2988 RMK AO2 SLP117 T01560144 10194 20156 53003
Loading
Personal Weather Stations






























Interactive Weather Map
Tropical Storm Tracking
New forecast layout! Learn more

10-Day Weather Forecast

Advertisements
Track Severe Weather on mobile